Time;durP1;ratioP1;P1;durP2;ratioP2;P2;SDS_P1;SDS_P2;PMS_P1;PMS_P2;Temp;Humidity;BMP_temperature;BMP_pressure;BME280_temperature;BME280_humidity;BME280_pressure;Samples;Min_cycle;Max_cycle;Signal;HPM_P1;HPM_P2
2022/04/09 16:35:36;;;;;;;0.60;0.60;;;;;;;;;;6121748;23;20099;-86
2022/04/09 16:38:03;;;;;;;1.42;0.80;;;;;;;;;;6126509;23;20030;-87
2022/04/09 16:40:31;;;;;;;1.42;1.08;;;;;;;;;;6127936;23;20010;-86
2022/04/09 16:42:57;;;;;;;6.40;3.72;;;;;;;;;;6146041;23;20073;-86
2022/04/09 16:45:23;;;;;;;1.70;1.58;;;;;;;;;;6098608;23;20074;-85
2022/04/09 16:47:48;;;;;;;1.05;0.95;;;;;;;;;;6098966;23;20491;-85
2022/04/09 16:50:14;;;;;;;1.42;1.27;;;;;;;;;;6098889;23;20026;-85
2022/04/09 16:52:39;;;;;;;1.52;1.40;;;;;;;;;;6121342;23;20094;-85
2022/04/09 16:55:05;;;;;;;1.33;1.20;;;;;;;;;;6121422;23;20090;-84
2022/04/09 16:57:31;;;;;;;1.85;0.90;;;;;;;;;;6096889;23;20002;-85
2022/04/09 16:59:57;;;;;;;0.82;0.82;;;;;;;;;;6098733;23;20082;-86
2022/04/09 17:02:22;;;;;;;1.73;1.17;;;;;;;;;;6098670;23;20011;-85
2022/04/09 17:04:48;;;;;;;2.58;0.88;;;;;;;;;;6098903;23;20421;-86
2022/04/09 17:07:14;;;;;;;1.10;0.80;;;;;;;;;;6099020;23;20350;-85
2022/04/09 17:09:40;;;;;;;1.10;0.70;;;;;;;;;;6098650;23;20106;-88
2022/04/09 17:12:06;;;;;;;0.70;0.70;;;;;;;;;;6121570;23;20485;-86
2022/04/09 17:14:31;;;;;;;0.90;0.90;;;;;;;;;;6098715;23;20342;-86
2022/04/09 17:16:57;;;;;;;1.05;0.90;;;;;;;;;;6098814;23;20002;-85
2022/04/09 17:19:23;;;;;;;0.80;0.80;;;;;;;;;;6098553;23;20013;-85
2022/04/09 17:21:48;;;;;;;1.50;0.93;;;;;;;;;;6098630;23;20010;-85
2022/04/09 17:24:14;;;;;;;1.45;1.20;;;;;;;;;;6098153;23;20046;-85
2022/04/09 17:26:40;;;;;;;0.82;0.80;;;;;;;;;;6098734;23;20003;-86
2022/04/09 17:29:06;;;;;;;2.10;0.80;;;;;;;;;;6098529;23;20057;-86
2022/04/09 17:31:32;;;;;;;1.40;0.85;;;;;;;;;;6098683;23;20006;-89
2022/04/09 17:33:58;;;;;;;1.05;0.90;;;;;;;;;;6098599;23;20006;-86
2022/04/09 17:36:24;;;;;;;1.10;1.00;;;;;;;;;;6098491;23;20014;-85
2022/04/09 17:38:49;;;;;;;1.17;0.90;;;;;;;;;;6098194;23;20334;-86
2022/04/09 17:41:15;;;;;;;0.90;0.60;;;;;;;;;;6098165;23;20011;-82
2022/04/09 17:43:40;;;;;;;1.25;0.98;;;;;;;;;;6098255;23;20006;-85
2022/04/09 17:46:06;;;;;;;1.17;1.00;;;;;;;;;;6098600;23;20057;-85
2022/04/09 17:48:32;;;;;;;3.00;1.00;;;;;;;;;;6098159;23;20002;-86
2022/04/09 17:50:58;;;;;;;2.15;1.33;;;;;;;;;;6098434;23;20452;-84
2022/04/09 17:53:26;;;;;;;1.33;0.93;;;;;;;;;;6098198;23;20085;-84
2022/04/09 17:55:52;;;;;;;0.70;0.70;;;;;;;;;;6098328;23;20014;-85
2022/04/09 17:58:18;;;;;;;0.70;0.70;;;;;;;;;;6096668;23;20312;-84
2022/04/09 18:00:43;;;;;;;1.45;1.20;;;;;;;;;;6098609;23;20065;-82
2022/04/09 18:03:09;;;;;;;1.08;1.00;;;;;;;;;;6098536;23;20022;-83
2022/04/09 18:05:34;;;;;;;1.42;1.00;;;;;;;;;;6098579;23;20009;-90
2022/04/09 18:08:05;;;;;;;0.90;0.90;;;;;;;;;;6098314;23;20010;-90
2022/04/09 18:10:31;;;;;;;0.90;0.90;;;;;;;;;;6098472;23;20323;-85
2022/04/09 18:12:56;;;;;;;1.33;1.13;;;;;;;;;;6098120;23;20030;-85
2022/04/09 18:15:22;;;;;;;0.95;0.90;;;;;;;;;;6097946;23;20324;-84
2022/04/09 18:17:47;;;;;;;1.27;1.17;;;;;;;;;;6098095;23;20003;-84
2022/04/09 18:20:13;;;;;;;2.00;1.30;;;;;;;;;;6098081;23;20065;-85
2022/04/09 18:22:39;;;;;;;1.77;1.35;;;;;;;;;;6097827;23;20073;-85
2022/04/09 18:25:06;;;;;;;14.82;8.00;;;;;;;;;;6098284;23;20002;-88
2022/04/09 22:18:13;;;;;;;2.65;2.05;;;;;;;;;;6195969;23;20083;-80
2022/04/09 22:20:39;;;;;;;1.63;1.52;;;;;;;;;;6190016;23;20020;-83
2022/04/09 22:23:05;;;;;;;2.47;1.88;;;;;;;;;;6216914;23;20311;-83
